Time;durP1;ratioP1;P1;durP2;ratioP2;P2;SDS_P1;SDS_P2;PMS_P1;PMS_P2;Temp;Humidity;BMP_temperature;BMP_pressure;BME280_temperature;BME280_humidity;BME280_pressure;Samples;Min_cycle;Max_cycle;Signal;HPM_P1;HPM_P2
2023/10/18 00:01:09;;;;;;;5.47;5.37;;;21.20;75.30;;;;;;5019556;28;20453;-70
2023/10/18 00:03:37;;;;;;;5.47;5.37;;;21.10;75.20;;;;;;5019514;28;20960;-70
2023/10/18 00:06:12;;;;;;;5.80;5.50;;;21.10;75.20;;;;;;5021731;28;20477;-70
2023/10/18 00:08:39;;;;;;;5.47;5.37;;;21.10;75.30;;;;;;5022874;28;20531;-70
2023/10/18 00:11:07;;;;;;;5.00;4.90;;;21.10;75.40;;;;;;5018436;28;20453;-69
2023/10/18 00:13:34;;;;;;;5.20;5.10;;;21.00;75.20;;;;;;5019731;28;20501;-70
2023/10/18 00:16:02;;;;;;;5.47;5.30;;;21.00;75.40;;;;;;5021087;28;20442;-71
2023/10/18 00:18:29;;;;;;;5.90;5.60;;;21.00;75.40;;;;;;5017286;28;20980;-70
2023/10/18 00:21:00;;;;;;;6.47;6.27;;;21.00;75.60;;;;;;5020088;28;20473;-69
2023/10/18 00:23:28;;;;;;;4.87;4.77;;;21.00;75.60;;;;;;5023027;28;20814;-70
2023/10/18 00:25:55;;;;;;;5.70;5.53;;;20.90;75.40;;;;;;5021918;28;20507;-70
2023/10/18 00:28:23;;;;;;;5.60;5.43;;;20.90;75.60;;;;;;5019183;28;20501;-70
2023/10/18 00:30:52;;;;;;;5.80;5.43;;;20.90;75.70;;;;;;5019644;28;20473;-70
2023/10/18 00:33:19;;;;;;;4.83;4.73;;;21.00;75.80;;;;;;5022898;28;20445;-70
2023/10/18 00:35:47;;;;;;;5.57;5.47;;;20.90;75.60;;;;;;5022677;28;20469;-70
2023/10/18 00:38:17;;;;;;;6.33;6.13;;;20.90;75.70;;;;;;5018608;28;20477;-70
2023/10/18 00:40:45;;;;;;;5.80;5.60;;;20.90;75.80;;;;;;5021928;28;20541;-70
2023/10/18 00:43:19;;;;;;;5.10;5.00;;;20.80;75.70;;;;;;5025787;28;20451;-70
2023/10/18 00:45:50;;;;;;;5.83;5.63;;;20.90;75.80;;;;;;5026005;28;21156;-70
2023/10/18 00:48:23;;;;;;;6.27;6.10;;;20.90;75.90;;;;;;5022015;28;20478;-70
2023/10/18 00:50:52;;;;;;;5.17;5.07;;;20.90;76.00;;;;;;5022759;28;20964;-70
2023/10/18 00:53:22;;;;;;;5.60;5.50;;;20.80;76.00;;;;;;5022824;28;20450;-70
2023/10/18 00:55:52;;;;;;;5.20;5.10;;;20.80;76.00;;;;;;5022656;28;20450;-70
2023/10/18 00:58:20;;;;;;;5.63;5.50;;;20.80;76.00;;;;;;5019169;28;20484;-70
2023/10/18 01:00:49;;;;;;;5.60;5.50;;;20.80;76.00;;;;;;5022672;28;20488;-70
2023/10/18 01:03:28;;;;;;;4.90;4.80;;;20.80;76.00;;;;;;5014633;28;20446;-71
2023/10/18 01:06:00;;;;;;;5.77;5.50;;;20.80;76.00;;;;;;5022468;28;20477;-70
2023/10/18 01:08:29;;;;;;;4.90;4.80;;;20.80;76.20;;;;;;5022993;28;20996;-69
2023/10/18 01:11:01;;;;;;;4.97;4.87;;;20.80;76.90;;;;;;5022699;28;20504;-70
2023/10/18 01:13:28;;;;;;;5.80;5.30;;;20.80;76.20;;;;;;5025801;28;20536;-70
2023/10/18 01:15:57;;;;;;;4.80;4.70;;;20.70;76.20;;;;;;5024928;28;20469;-70
2023/10/18 01:18:24;;;;;;;5.00;4.80;;;20.70;76.30;;;;;;5021356;28;20481;-70
2023/10/18 01:20:52;;;;;;;5.57;5.47;;;20.70;76.30;;;;;;5026119;28;20457;-71
2023/10/18 01:23:19;;;;;;;5.30;5.20;;;20.70;76.40;;;;;;5025505;28;20480;-70
2023/10/18 01:25:48;;;;;;;4.97;4.87;;;20.70;76.40;;;;;;5025246;28;20487;-70
2023/10/18 01:28:15;;;;;;;5.10;5.00;;;20.70;76.40;;;;;;5021570;28;20476;-70
2023/10/18 01:30:42;;;;;;;5.70;5.60;;;20.70;76.40;;;;;;5021860;28;20473;-70
2023/10/18 01:33:12;;;;;;;4.90;4.80;;;20.70;76.30;;;;;;5023980;28;20447;-70
2023/10/18 01:35:46;;;;;;;4.70;4.60;;;20.60;76.30;;;;;;5025052;28;20472;-71
2023/10/18 01:38:19;;;;;;;5.07;4.97;;;20.70;77.30;;;;;;5021684;28;23447;-70
2023/10/18 01:40:53;;;;;;;5.53;5.33;;;20.70;76.40;;;;;;5021863;28;20447;-70
2023/10/18 01:43:25;;;;;;;5.23;5.10;;;20.70;76.50;;;;;;5013708;28;20449;-70
2023/10/18 01:45:52;;;;;;;4.93;4.83;;;20.70;76.40;;;;;;5021397;28;20566;-69
2023/10/18 01:48:19;;;;;;;5.40;5.30;;;20.70;76.50;;;;;;5016850;28;20501;-70
2023/10/18 01:50:47;;;;;;;4.80;4.70;;;20.70;76.60;;;;;;5021545;28;20446;-70
2023/10/18 01:53:18;;;;;;;5.50;5.40;;;20.70;76.60;;;;;;5024007;28;20975;-69
2023/10/18 01:55:51;;;;;;;5.30;5.20;;;20.70;76.50;;;;;;5024646;28;20442;-70
2023/10/18 01:58:23;;;;;;;5.57;5.37;;;20.70;76.50;;;;;;5021048;28;20858;-70
2023/10/18 02:00:52;;;;;;;4.90;4.80;;;20.60;76.50;;;;;;5021400;28;20469;-69
2023/10/18 02:03:19;;;;;;;5.30;5.20;;;20.60;76.70;;;;;;5024454;28;20479;-70
2023/10/18 02:05:47;;;;;;;4.80;4.70;;;20.60;76.70;;;;;;5024431;28;20473;-70
2023/10/18 02:08:14;;;;;;;4.90;4.80;;;20.60;76.70;;;;;;5019816;28;20469;-70
2023/10/18 02:10:42;;;;;;;5.80;5.60;;;20.60;76.90;;;;;;5017415;28;20881;-71
2023/10/18 02:13:10;;;;;;;5.17;5.07;;;20.60;76.90;;;;;;5023076;28;20500;-70
2023/10/18 02:15:39;;;;;;;5.27;5.17;;;20.60;76.80;;;;;;5024332;28;20531;-70
2023/10/18 02:18:07;;;;;;;5.20;5.10;;;20.60;76.90;;;;;;5020640;28;20476;-71
2023/10/18 02:20:35;;;;;;;5.20;5.00;;;20.60;76.80;;;;;;5021044;28;20460;-71
2023/10/18 02:23:10;;;;;;;5.30;5.13;;;20.50;76.90;;;;;;5021869;28;20453;-71
2023/10/18 02:25:43;;;;;;;5.93;5.83;;;20.50;76.90;;;;;;5018078;28;20477;-70
2023/10/18 02:28:22;;;;;;;4.80;4.70;;;20.50;76.90;;;;;;5023000;28;20469;-70
2023/10/18 02:30:56;;;;;;;5.10;4.80;;;20.50;76.80;;;;;;5024240;28;20811;-69
2023/10/18 02:33:33;;;;;;;5.93;5.73;;;20.50;76.80;;;;;;5013122;28;20504;-70
2023/10/18 02:36:00;;;;;;;5.60;5.40;;;20.50;76.90;;;;;;5013437;28;20470;-70
2023/10/18 02:38:27;;;;;;;5.40;5.30;;;20.60;77.00;;;;;;5046565;22;20461;-66
2023/10/18 02:40:56;;;;;;;4.90;4.80;;;20.50;76.90;;;;;;4992910;28;21005;-66
2023/10/18 02:43:24;;;;;;;5.17;5.07;;;20.60;77.00;;;;;;4992747;28;20443;-66
2023/10/18 02:45:53;;;;;;;5.07;4.97;;;20.60;77.10;;;;;;4992305;28;20483;-67
2023/10/18 02:48:24;;;;;;;5.67;5.40;;;20.50;77.00;;;;;;4992615;28;20446;-67
2023/10/18 02:50:54;;;;;;;5.47;5.00;;;20.50;77.20;;;;;;4992712;28;21058;-68
2023/10/18 02:53:21;;;;;;;5.23;5.13;;;20.50;77.20;;;;;;4992463;28;20454;-66
2023/10/18 02:55:56;;;;;;;5.10;5.00;;;20.50;77.10;;;;;;4992513;28;20866;-66
2023/10/18 02:58:32;;;;;;;5.30;5.20;;;20.50;77.00;;;;;;4984888;28;20526;-66
2023/10/18 03:01:05;;;;;;;5.30;5.20;;;20.50;77.10;;;;;;4992533;28;20455;-66
2023/10/18 03:03:33;;;;;;;5.70;5.50;;;20.50;77.10;;;;;;4991850;28;20478;-66
2023/10/18 03:06:05;;;;;;;5.27;5.17;;;20.50;77.20;;;;;;4992108;28;21038;-66
2023/10/18 03:08:32;;;;;;;5.63;5.43;;;20.50;77.20;;;;;;4992338;28;20454;-67
2023/10/18 03:11:00;;;;;;;5.63;5.43;;;20.50;77.10;;;;;;4992388;28;20479;-67
2023/10/18 03:13:28;;;;;;;5.00;4.90;;;20.50;77.10;;;;;;4992086;28;20491;-67
2023/10/18 03:16:06;;;;;;;5.67;5.57;;;20.40;77.10;;;;;;4992380;28;20474;-66
2023/10/18 03:18:35;;;;;;;5.30;5.17;;;20.40;77.20;;;;;;4985751;28;20478;-67
2023/10/18 03:21:05;;;;;;;5.27;5.07;;;20.40;77.20;;;;;;4992126;28;20843;-66
2023/10/18 03:23:32;;;;;;;5.47;5.37;;;20.40;77.20;;;;;;4992259;28;20453;-66
2023/10/18 03:26:02;;;;;;;5.90;5.70;;;20.40;77.10;;;;;;4991943;28;20486;-66
2023/10/18 03:28:34;;;;;;;5.27;5.17;;;20.50;77.00;;;;;;4992032;28;20447;-67
2023/10/18 03:31:20;;;;;;;5.17;5.07;;;20.50;76.90;;;;;;4992056;28;20443;-67
2023/10/18 03:33:53;;;;;;;5.07;4.97;;;20.50;76.90;;;;;;4991988;28;20466;-67
2023/10/18 03:36:21;;;;;;;6.00;5.80;;;20.50;77.00;;;;;;4991976;28;20442;-67
2023/10/18 03:39:00;;;;;;;5.50;5.40;;;20.50;76.90;;;;;;4992014;28;20475;-67
2023/10/18 03:41:33;;;;;;;5.53;5.43;;;20.40;77.00;;;;;;4984516;28;20447;-67
2023/10/18 03:44:06;;;;;;;5.90;5.80;;;20.50;77.20;;;;;;4991887;28;20446;-66
2023/10/18 03:46:48;;;;;;;5.10;5.00;;;20.50;77.20;;;;;;4992333;28;20851;-67
2023/10/18 03:49:25;;;;;;;5.53;5.33;;;20.50;77.30;;;;;;4991877;28;20473;-67
2023/10/18 03:51:54;;;;;;;5.70;5.50;;;20.50;77.40;;;;;;4991840;28;20507;-69
2023/10/18 03:54:23;;;;;;;5.50;5.40;;;20.50;77.40;;;;;;4991384;28;20458;-68
2023/10/18 03:56:52;;;;;;;5.40;5.27;;;20.50;77.50;;;;;;4992072;28;20439;-66
2023/10/18 03:59:24;;;;;;;5.57;5.47;;;20.40;77.50;;;;;;4991874;28;20979;-67
2023/10/18 04:02:05;;;;;;;5.70;5.60;;;20.50;77.70;;;;;;4991774;28;20501;-67
2023/10/18 04:04:35;;;;;;;5.70;5.60;;;20.40;77.70;;;;;;4984886;28;20458;-67
2023/10/18 04:07:13;;;;;;;6.13;5.93;;;20.40;77.70;;;;;;4991713;28;20558;-66
2023/10/18 04:09:46;;;;;;;5.43;5.33;;;20.40;77.90;;;;;;4991701;28;20545;-67
2023/10/18 04:12:17;;;;;;;5.73;5.60;;;20.40;78.00;;;;;;4991523;28;20463;-67
2023/10/18 04:14:52;;;;;;;5.40;5.30;;;20.40;78.00;;;;;;4993137;28;20553;-67
2023/10/18 04:17:32;;;;;;;5.60;5.50;;;20.40;78.00;;;;;;4995542;28;20482;-67
2023/10/18 04:20:01;;;;;;;5.53;5.43;;;20.40;77.90;;;;;;4995447;28;20467;-67
2023/10/18 04:22:29;;;;;;;6.00;5.80;;;20.40;77.90;;;;;;4987736;28;20546;-66
2023/10/18 04:24:56;;;;;;;6.20;6.00;;;20.40;77.90;;;;;;4994510;28;20454;-67
2023/10/18 04:27:23;;;;;;;5.70;5.60;;;20.50;77.90;;;;;;4995031;28;21002;-67
2023/10/18 04:29:55;;;;;;;6.07;5.87;;;20.50;77.90;;;;;;4995172;28;20973;-67
2023/10/18 04:32:24;;;;;;;5.50;5.40;;;20.50;77.90;;;;;;4995182;28;20451;-67
2023/10/18 04:34:51;;;;;;;6.17;5.97;;;20.40;77.90;;;;;;4995183;28;20441;-67
2023/10/18 04:37:22;;;;;;;5.80;5.53;;;20.40;77.90;;;;;;4995073;28;20481;-67
2023/10/18 04:39:49;;;;;;;5.60;5.40;;;20.40;77.90;;;;;;4994935;28;20467;-67
2023/10/18 04:42:17;;;;;;;6.03;5.83;;;20.40;77.90;;;;;;4994729;28;20485;-67
2023/10/18 04:44:48;;;;;;;6.20;6.00;;;20.40;77.70;;;;;;4994951;28;20497;-67
2023/10/18 04:47:15;;;;;;;6.30;6.20;;;20.40;77.60;;;;;;4994824;28;20522;-67
2023/10/18 04:49:50;;;;;;;6.00;5.80;;;20.40;77.70;;;;;;4994838;28;21038;-67
2023/10/18 04:52:28;;;;;;;6.37;6.20;;;20.40;77.70;;;;;;4994715;28;20458;-67
2023/10/18 04:55:00;;;;;;;5.97;5.83;;;20.40;77.80;;;;;;4994742;28;20453;-67
2023/10/18 04:57:28;;;;;;;6.73;6.53;;;20.40;77.70;;;;;;4986825;28;20455;-67
2023/10/18 04:59:59;;;;;;;7.20;7.00;;;20.40;77.60;;;;;;4994599;28;20505;-67
2023/10/18 05:02:29;;;;;;;6.27;6.17;;;20.40;77.70;;;;;;4994243;28;20450;-67
2023/10/18 05:04:57;;;;;;;5.90;5.70;;;20.40;77.70;;;;;;4994549;28;20534;-67
2023/10/18 05:07:40;;;;;;;5.80;5.70;;;20.40;77.70;;;;;;4994364;28;21004;-67
2023/10/18 05:10:14;;;;;;;6.00;5.80;;;20.40;77.90;;;;;;4994463;28;20944;-67
2023/10/18 05:12:47;;;;;;;6.30;6.20;;;20.40;77.70;;;;;;4994516;28;20469;-67
2023/10/18 05:15:18;;;;;;;6.37;6.17;;;20.40;77.80;;;;;;4994329;28;20446;-67
2023/10/18 05:17:45;;;;;;;5.90;5.70;;;20.40;77.60;;;;;;4994574;28;20478;-67
2023/10/18 05:22:59;;;;;;;6.00;5.80;;;20.40;77.60;;;;;;4993737;28;20443;-67
2023/10/18 05:25:35;;;;;;;6.03;5.83;;;20.40;77.60;;;;;;4993438;28;20441;-67
2023/10/18 05:28:09;;;;;;;7.27;6.87;;;20.40;77.60;;;;;;4993975;28;20478;-67
2023/10/18 05:36:29;;;;;;;15.40;9.90;;;20.50;80.70;;;;;;4993799;28;20945;-67
2023/10/18 05:39:05;;;;;;;9.67;8.23;;;20.50;81.80;;;;;;4993941;28;20474;-66
2023/10/18 05:41:45;;;;;;;24.20;9.07;;;20.50;83.10;;;;;;4986686;28;21115;-67
2023/10/18 05:44:12;;;;;;;18.53;9.10;;;20.50;86.30;;;;;;4993436;28;20487;-67
2023/10/18 05:46:41;;;;;;;17.57;10.20;;;20.50;88.60;;;;;;4993607;28;20474;-67
2023/10/18 05:49:15;;;;;;;13.52;12.13;;;20.40;83.30;;;;;;4991174;28;20453;-67
2023/10/18 05:51:53;;;;;;;14.43;13.40;;;20.40;80.90;;;;;;4993137;28;20219;-67
2023/10/18 05:54:21;;;;;;;14.73;13.73;;;20.50;76.90;;;;;;4993446;28;20875;-67
2023/10/18 05:56:50;;;;;;;12.67;12.07;;;20.50;75.30;;;;;;4993443;28;20443;-66
2023/10/18 06:02:02;;;;;;;13.10;12.20;;;20.50;78.80;;;;;;4991655;28;20431;-68
2023/10/18 06:04:37;;;;;;;15.50;13.80;;;20.60;84.70;;;;;;4993267;28;21033;-69
2023/10/18 06:07:09;;;;;;;13.80;12.67;;;20.60;83.70;;;;;;4994019;28;21036;-68
2023/10/18 06:09:45;;;;;;;14.20;13.10;;;20.70;85.20;;;;;;4993238;28;20869;-67
2023/10/18 06:12:15;;;;;;;14.17;12.83;;;20.70;84.50;;;;;;4993865;28;20533;-66
2023/10/18 06:14:44;;;;;;;13.50;12.70;;;20.80;84.60;;;;;;4993407;28;20443;-68
2023/10/18 06:17:14;;;;;;;12.40;11.50;;;20.80;84.50;;;;;;4992904;28;20531;-67
2023/10/18 06:19:45;;;;;;;13.97;13.10;;;20.80;84.40;;;;;;4986572;28;21089;-67
2023/10/18 06:22:27;;;;;;;13.03;12.20;;;20.90;84.40;;;;;;4992780;28;20454;-67
2023/10/18 06:24:55;;;;;;;13.23;12.33;;;21.00;84.10;;;;;;4993164;28;20455;-68
2023/10/18 06:27:23;;;;;;;13.10;12.30;;;21.00;83.70;;;;;;4992893;28;20479;-67
2023/10/18 06:29:53;;;;;;;12.73;11.90;;;21.10;83.10;;;;;;4993141;28;20455;-68
2023/10/18 06:32:24;;;;;;;12.93;12.33;;;21.10;82.50;;;;;;4992916;28;20989;-67
2023/10/18 06:34:57;;;;;;;13.40;12.53;;;21.20;81.70;;;;;;4992959;28;20459;-67
2023/10/18 06:37:41;;;;;;;12.23;11.47;;;21.20;81.60;;;;;;4990904;28;20451;-66
2023/10/18 06:40:21;;;;;;;10.70;10.20;;;21.10;82.30;;;;;;4989558;28;20470;-66
2023/10/18 06:42:47;;;;;;;10.70;10.00;;;21.10;82.20;;;;;;4992632;28;20451;-65
2023/10/18 06:45:17;;;;;;;10.67;10.07;;;21.10;82.80;;;;;;4992723;28;20482;-65
2023/10/18 06:47:45;;;;;;;10.23;9.63;;;21.20;82.70;;;;;;4992423;28;20475;-65
2023/10/18 06:50:14;;;;;;;10.47;9.70;;;21.20;83.40;;;;;;4992359;28;20529;-64
2023/10/18 06:52:52;;;;;;;9.57;8.67;;;21.20;82.90;;;;;;4992665;28;20459;-64
2023/10/18 06:55:35;;;;;;;9.57;8.93;;;21.20;83.00;;;;;;4992280;28;20493;-64
2023/10/18 06:58:11;;;;;;;10.10;9.43;;;21.20;83.30;;;;;;4992257;28;20453;-65
2023/10/18 07:00:43;;;;;;;9.30;9.00;;;21.20;83.50;;;;;;4985430;28;20462;-64
2023/10/18 07:03:16;;;;;;;9.63;9.00;;;21.20;83.00;;;;;;4991682;28;20443;-64
2023/10/18 07:05:46;;;;;;;8.90;8.40;;;21.20;83.00;;;;;;4992182;28;20451;-64
2023/10/18 07:08:20;;;;;;;10.10;9.30;;;21.20;82.90;;;;;;4991897;28;20483;-64
2023/10/18 07:10:54;;;;;;;9.27;8.93;;;21.30;82.90;;;;;;4991996;28;20946;-64
2023/10/18 07:13:32;;;;;;;9.20;8.70;;;21.30;82.90;;;;;;4990417;28;20459;-66
2023/10/18 07:16:01;;;;;;;9.77;9.10;;;21.30;82.00;;;;;;4992059;28;20451;-65
2023/10/18 07:18:28;;;;;;;8.97;8.33;;;21.30;82.10;;;;;;4991922;28;20447;-65
2023/10/18 07:21:05;;;;;;;9.40;8.93;;;21.30;82.10;;;;;;4991852;28;20977;-65
2023/10/18 07:23:36;;;;;;;14.53;8.27;;;21.30;81.50;;;;;;4990774;28;20582;-65
2023/10/18 07:26:04;;;;;;;8.80;8.23;;;21.30;81.70;;;;;;4991808;28;20447;-65
2023/10/18 07:28:35;;;;;;;12.07;8.70;;;21.30;82.00;;;;;;4991965;28;20479;-66
2023/10/18 07:31:08;;;;;;;8.47;7.97;;;21.40;81.80;;;;;;4992291;28;20459;-67
2023/10/18 07:33:40;;;;;;;8.23;8.03;;;21.40;81.50;;;;;;4987249;28;20830;-67
2023/10/18 07:36:08;;;;;;;11.35;10.43;;;21.40;81.60;;;;;;4990958;28;20531;-67
2023/10/18 07:38:40;;;;;;;9.30;8.67;;;21.40;81.50;;;;;;4990347;28;20223;-65
2023/10/18 07:41:08;;;;;;;16.33;15.07;;;21.40;81.70;;;;;;4991324;28;20506;-65
2023/10/18 07:43:36;;;;;;;14.00;13.40;;;21.40;81.70;;;;;;4987116;28;20457;-64
2023/10/18 07:46:09;;;;;;;13.50;13.10;;;21.40;81.60;;;;;;4991910;28;20470;-64
2023/10/18 07:48:45;;;;;;;10.20;9.63;;;21.40;81.70;;;;;;4988492;28;21017;-64
2023/10/18 07:51:23;;;;;;;9.30;8.90;;;21.40;81.60;;;;;;4995103;28;20455;-65
2023/10/18 07:53:53;;;;;;;9.83;9.53;;;21.40;81.80;;;;;;4995503;28;20490;-65
2023/10/18 07:56:26;;;;;;;8.93;8.60;;;21.50;81.60;;;;;;4995356;28;20490;-65
2023/10/18 07:58:55;;;;;;;6.73;6.20;;;21.50;81.40;;;;;;4994892;28;20980;-67
2023/10/18 08:04:03;;;;;;;8.90;8.40;;;21.60;80.80;;;;;;4995395;28;20510;-66
2023/10/18 08:06:33;;;;;;;8.50;7.73;;;21.60;80.40;;;;;;4994552;28;20474;-65
2023/10/18 08:09:05;;;;;;;8.03;7.63;;;21.60;80.60;;;;;;4995287;28;20463;-67
2023/10/18 08:11:34;;;;;;;8.00;7.60;;;21.60;80.30;;;;;;4994251;28;20454;-66
2023/10/18 08:14:09;;;;;;;7.77;7.27;;;21.60;80.00;;;;;;4995819;28;20942;-68
2023/10/18 08:16:43;;;;;;;7.80;7.10;;;21.50;79.90;;;;;;4987521;28;20948;-67
2023/10/18 08:19:11;;;;;;;7.93;7.53;;;21.50;80.20;;;;;;4995167;28;21019;-67
2023/10/18 08:21:39;;;;;;;7.77;7.27;;;21.50;80.20;;;;;;4995293;28;20857;-66
2023/10/18 08:24:08;;;;;;;8.10;7.53;;;21.50;80.50;;;;;;4995254;28;20973;-67
2023/10/18 08:26:46;;;;;;;8.97;8.30;;;21.40;80.50;;;;;;4987086;28;20450;-68
2023/10/18 08:29:13;;;;;;;7.10;6.80;;;21.30;81.10;;;;;;4994952;28;20486;-69
2023/10/18 08:31:43;;;;;;;7.93;7.43;;;21.20;81.10;;;;;;4995196;28;20481;-68
2023/10/18 08:34:14;;;;;;;8.73;7.83;;;21.30;81.10;;;;;;4994725;28;20470;-67
2023/10/18 08:36:43;;;;;;;8.40;7.90;;;21.20;80.80;;;;;;4995041;28;20518;-68
2023/10/18 08:39:12;;;;;;;9.13;8.50;;;21.20;80.60;;;;;;5021609;22;21009;-66
2023/10/18 08:41:49;;;;;;;7.50;7.10;;;21.20;80.60;;;;;;5026076;28;20674;-66
2023/10/18 08:44:21;;;;;;;7.37;7.17;;;21.20;80.40;;;;;;5024803;28;20524;-66
2023/10/18 08:47:04;;;;;;;8.57;8.07;;;21.20;80.30;;;;;;5022437;28;20434;-66
2023/10/18 08:49:33;;;;;;;7.70;7.50;;;21.10;80.20;;;;;;5025149;28;20464;-66
2023/10/18 08:52:06;;;;;;;7.97;7.57;;;21.10;80.20;;;;;;5025904;28;20457;-66
2023/10/18 08:54:39;;;;;;;8.97;8.50;;;21.00;80.10;;;;;;5022619;28;20469;-66
2023/10/18 08:57:09;;;;;;;7.57;7.27;;;21.00;80.00;;;;;;5022478;28;20861;-66
2023/10/18 08:59:46;;;;;;;8.17;7.50;;;21.00;80.00;;;;;;5013999;28;20469;-66
2023/10/18 09:02:12;;;;;;;7.67;7.30;;;21.00;79.90;;;;;;5022333;28;20545;-66
2023/10/18 09:04:44;;;;;;;7.37;6.97;;;21.00;79.90;;;;;;5025480;28;20535;-66
2023/10/18 09:07:18;;;;;;;7.20;6.97;;;21.00;79.80;;;;;;5025723;28;20485;-66
2023/10/18 09:09:55;;;;;;;7.90;7.60;;;20.90;79.70;;;;;;5015309;28;20541;-65
2023/10/18 09:12:35;;;;;;;7.73;7.40;;;21.00;79.80;;;;;;5023542;28;21024;-65
2023/10/18 09:15:27;;;;;;;9.40;8.43;;;20.90;79.60;;;;;;5025396;28;20440;-66
2023/10/18 09:17:54;;;;;;;7.70;7.40;;;20.90;79.60;;;;;;5016141;28;20846;-66
2023/10/18 09:20:25;;;;;;;7.53;7.33;;;20.90;79.60;;;;;;5022993;28;20976;-66
2023/10/18 09:22:52;;;;;;;8.17;7.87;;;20.90;79.50;;;;;;5025336;28;20840;-66
2023/10/18 09:25:23;;;;;;;8.60;8.03;;;20.80;79.40;;;;;;5024101;28;20636;-66
2023/10/18 09:27:51;;;;;;;7.40;7.20;;;20.80;80.20;;;;;;5021944;28;20478;-65
2023/10/18 09:30:19;;;;;;;7.50;7.20;;;20.80;79.50;;;;;;5022481;28;20505;-66
2023/10/18 09:32:47;;;;;;;7.20;6.80;;;20.80;79.60;;;;;;5025143;28;20449;-65
2023/10/18 09:35:25;;;;;;;8.03;7.63;;;20.90;79.60;;;;;;5024563;28;20472;-66
2023/10/18 09:37:52;;;;;;;7.27;7.07;;;20.90;79.50;;;;;;5021668;28;20437;-65
2023/10/18 09:40:21;;;;;;;7.07;6.77;;;20.90;79.40;;;;;;5022109;28;21000;-65
2023/10/18 09:42:50;;;;;;;7.30;7.10;;;20.90;79.30;;;;;;5024878;28;20469;-65
2023/10/18 09:45:20;;;;;;;7.40;7.10;;;20.90;79.30;;;;;;5024355;28;20445;-66
2023/10/18 09:47:47;;;;;;;7.77;7.37;;;20.90;79.20;;;;;;5021522;28;20555;-66
2023/10/18 09:50:23;;;;;;;7.93;7.63;;;20.90;79.20;;;;;;5021405;28;20545;-66
2023/10/18 09:52:56;;;;;;;7.90;7.50;;;20.90;79.10;;;;;;5024799;28;20449;-66
2023/10/18 09:55:26;;;;;;;8.03;7.60;;;20.90;79.10;;;;;;5023198;28;20947;-65
2023/10/18 09:58:02;;;;;;;7.17;6.77;;;20.90;79.10;;;;;;5021463;28;20470;-65
2023/10/18 10:00:33;;;;;;;7.53;7.33;;;20.90;78.90;;;;;;5023508;28;20469;-66
2023/10/18 10:03:08;;;;;;;6.93;6.73;;;20.80;78.80;;;;;;5024541;28;20517;-66
2023/10/18 10:05:41;;;;;;;6.60;6.40;;;20.90;78.90;;;;;;5021346;28;20441;-66
2023/10/18 10:08:09;;;;;;;6.87;6.77;;;20.80;78.80;;;;;;5021019;28;20486;-65
2023/10/18 10:10:46;;;;;;;7.00;6.70;;;20.80;78.80;;;;;;5023908;28;20489;-66
2023/10/18 10:13:18;;;;;;;7.53;7.33;;;20.80;78.90;;;;;;5024363;28;20480;-65
2023/10/18 10:15:54;;;;;;;7.00;6.70;;;20.80;78.90;;;;;;5013667;28;20446;-66
2023/10/18 10:18:24;;;;;;;7.60;7.20;;;20.80;79.00;;;;;;5021760;28;20438;-65
2023/10/18 10:20:54;;;;;;;8.23;7.27;;;20.70;78.90;;;;;;5024237;28;20851;-65
2023/10/18 10:23:21;;;;;;;7.20;7.00;;;20.80;79.00;;;;;;5023198;28;20445;-65
2023/10/18 10:26:12;;;;;;;6.87;6.77;;;20.70;78.90;;;;;;5020648;28;20470;-66
2023/10/18 10:31:51;;;;;;;7.50;7.30;;;20.70;78.80;;;;;;5022005;28;20444;-65
2023/10/18 10:34:24;;;;;;;8.00;7.80;;;20.70;78.90;;;;;;5020579;28;20449;-65
2023/10/18 10:36:52;;;;;;;8.07;7.87;;;20.70;78.90;;;;;;5017591;28;20446;-65
2023/10/18 10:39:24;;;;;;;8.50;8.10;;;20.70;78.90;;;;;;5015617;28;20960;-65
2023/10/18 10:41:53;;;;;;;7.93;7.63;;;20.70;78.90;;;;;;5024019;28;20469;-65
2023/10/18 10:44:30;;;;;;;8.10;7.90;;;20.70;78.80;;;;;;5023048;28;20473;-65
2023/10/18 10:47:32;;;;;;;8.33;8.13;;;20.70;79.00;;;;;;5017992;28;20869;-65
2023/10/18 10:50:00;;;;;;;8.00;7.80;;;20.70;78.80;;;;;;5023806;28;20493;-66
2023/10/18 10:52:30;;;;;;;8.80;8.20;;;20.70;78.80;;;;;;5015844;28;20504;-65
2023/10/18 10:55:17;;;;;;;7.87;7.67;;;20.70;78.80;;;;;;5023587;28;20499;-65
2023/10/18 10:57:46;;;;;;;7.90;7.70;;;20.70;78.80;;;;;;5012551;28;20469;-65
2023/10/18 11:03:30;;;;;;;7.67;7.47;;;20.70;78.80;;;;;;5005589;28;20524;-65
2023/10/18 11:05:58;;;;;;;7.50;7.30;;;20.60;78.60;;;;;;5014159;28;20436;-65
2023/10/18 11:08:28;;;;;;;7.70;7.50;;;20.70;78.80;;;;;;5021128;28;20473;-65
2023/10/18 11:10:57;;;;;;;7.60;7.40;;;20.60;78.70;;;;;;5023398;28;20457;-65
2023/10/18 11:13:26;;;;;;;7.40;7.20;;;20.60;78.70;;;;;;5030713;28;20445;-65
2023/10/18 11:15:53;;;;;;;8.37;8.17;;;20.60;78.60;;;;;;5019881;28;20434;-66
2023/10/18 11:18:22;;;;;;;8.43;8.23;;;20.60;78.60;;;;;;5020347;28;20474;-65
2023/10/18 11:20:50;;;;;;;7.80;7.60;;;20.60;78.70;;;;;;5023333;28;20499;-65
2023/10/18 11:23:18;;;;;;;8.77;8.37;;;20.70;78.80;;;;;;5022798;28;20458;-65
2023/10/18 11:25:45;;;;;;;8.20;7.90;;;20.70;78.70;;;;;;5019897;28;20454;-65
2023/10/18 11:28:20;;;;;;;7.80;7.50;;;20.60;78.60;;;;;;5019793;28;20535;-65
2023/10/18 11:30:49;;;;;;;6.87;6.67;;;20.60;78.60;;;;;;5012247;28;20457;-66
2023/10/18 11:33:17;;;;;;;7.33;7.23;;;20.60;78.60;;;;;;5019927;28;20476;-66
2023/10/18 11:35:49;;;;;;;7.30;7.10;;;20.70;78.70;;;;;;5011633;28;20452;-66
2023/10/18 11:38:19;;;;;;;7.10;6.90;;;20.70;78.70;;;;;;5019875;28;20894;-66
2023/10/18 11:40:50;;;;;;;7.40;7.20;;;20.70;78.60;;;;;;5012256;28;20502;-66
2023/10/18 11:43:24;;;;;;;6.80;6.70;;;20.70;78.60;;;;;;5019856;28;20953;-66
2023/10/18 11:46:04;;;;;;;7.67;7.47;;;20.70;78.60;;;;;;5012619;28;20446;-66
2023/10/18 11:48:35;;;;;;;7.60;7.20;;;20.70;78.60;;;;;;5021543;28;20916;-66
2023/10/18 11:51:06;;;;;;;6.57;6.47;;;20.70;78.50;;;;;;5022869;28;20904;-66
2023/10/18 11:53:33;;;;;;;7.40;7.20;;;20.70;78.50;;;;;;5020901;28;20453;-66
2023/10/18 11:56:02;;;;;;;7.30;7.00;;;20.70;78.50;;;;;;5019531;28;20448;-66
2023/10/18 11:58:30;;;;;;;7.40;7.20;;;20.80;78.70;;;;;;5020973;28;20970;-66
2023/10/18 12:01:00;;;;;;;7.00;6.90;;;20.70;78.50;;;;;;5022770;28;20500;-66
2023/10/18 12:03:28;;;;;;;7.40;7.20;;;20.70;78.50;;;;;;5021381;28;20445;-66
2023/10/18 12:05:56;;;;;;;7.93;7.73;;;20.70;78.60;;;;;;5019307;28;20500;-66
2023/10/18 12:08:24;;;;;;;7.57;7.30;;;20.70;78.50;;;;;;5019870;28;20488;-66
2023/10/18 12:10:52;;;;;;;7.40;7.10;;;20.70;78.50;;;;;;5022777;28;20491;-66
2023/10/18 12:13:20;;;;;;;7.03;6.90;;;20.80;78.60;;;;;;5022597;28;20967;-66
2023/10/18 12:15:47;;;;;;;7.10;6.90;;;20.70;78.40;;;;;;5019220;28;20453;-66
2023/10/18 12:18:16;;;;;;;7.40;7.20;;;20.80;78.60;;;;;;5019470;28;20438;-66
2023/10/18 12:20:46;;;;;;;7.10;6.90;;;20.80;78.60;;;;;;5022507;28;20497;-66
2023/10/18 12:23:18;;;;;;;7.47;7.27;;;20.80;78.50;;;;;;5022746;28;20480;-66
2023/10/18 12:25:46;;;;;;;7.20;6.93;;;20.80;78.50;;;;;;5011207;28;21015;-66
2023/10/18 12:28:15;;;;;;;7.77;7.57;;;20.70;78.40;;;;;;5019165;28;20520;-66
2023/10/18 12:30:43;;;;;;;7.27;7.07;;;20.70;78.40;;;;;;5022043;28;20472;-66
2023/10/18 12:33:19;;;;;;;7.27;7.07;;;20.80;78.50;;;;;;5022713;28;20445;-66
2023/10/18 12:35:48;;;;;;;6.70;6.50;;;20.80;78.50;;;;;;5012473;28;20442;-72
2023/10/18 12:38:20;;;;;;;7.70;7.50;;;20.70;78.30;;;;;;5022890;28;20442;-72
2023/10/18 12:40:54;;;;;;;7.60;7.40;;;20.70;78.80;;;;;;5014671;28;20473;-73
2023/10/18 12:43:22;;;;;;;7.40;7.20;;;20.70;79.40;;;;;;5022098;28;20479;-68
2023/10/18 12:45:51;;;;;;;7.00;6.80;;;20.60;79.50;;;;;;5017905;28;20460;-66
2023/10/18 12:48:22;;;;;;;8.40;8.10;;;20.60;79.80;;;;;;5016723;28;20482;-66
2023/10/18 12:50:51;;;;;;;7.30;7.10;;;20.60;79.90;;;;;;5014947;28;20461;-68
2023/10/18 12:53:36;;;;;;;6.83;6.63;;;20.50;80.10;;;;;;5022641;28;20446;-67
2023/10/18 12:58:54;;;;;;;6.87;6.70;;;20.50;80.60;;;;;;5025226;28;20441;-67
2023/10/18 13:01:22;;;;;;;7.20;6.90;;;20.50;80.70;;;;;;5025619;28;20962;-67
2023/10/18 13:03:56;;;;;;;6.90;6.70;;;20.50;81.20;;;;;;5022963;28;20435;-68
2023/10/18 13:06:30;;;;;;;7.20;7.00;;;20.50;81.20;;;;;;5023231;28;20478;-67
2023/10/18 13:09:15;;;;;;;6.83;6.73;;;20.60;81.00;;;;;;5026092;28;20470;-67
2023/10/18 13:11:44;;;;;;;6.77;6.57;;;20.60;81.10;;;;;;5022424;28;20461;-65
2023/10/18 13:14:14;;;;;;;6.67;6.47;;;20.60;80.90;;;;;;5026095;28;20441;-66
2023/10/18 13:16:41;;;;;;;6.47;6.37;;;20.60;80.80;;;;;;5023585;28;20453;-66
2023/10/18 13:19:09;;;;;;;7.20;6.90;;;20.60;80.60;;;;;;5024946;28;20547;-65
2023/10/18 13:21:39;;;;;;;7.83;7.53;;;20.70;81.00;;;;;;5024459;28;20563;-68
2023/10/18 13:24:17;;;;;;;8.23;7.70;;;20.70;82.00;;;;;;5023097;28;20446;-65
2023/10/18 13:26:44;;;;;;;8.10;7.50;;;20.80;83.10;;;;;;5025933;28;20437;-71
2023/10/18 13:29:16;;;;;;;7.93;7.43;;;20.80;83.00;;;;;;5023252;28;20528;-67